createdAt,value
2019-03-15T00:00:18.619Z,86.60
2019-03-15T00:01:18.597Z,87.32
2019-03-15T00:02:18.592Z,87.15
2019-03-15T00:03:18.603Z,86.53
2019-03-15T00:04:18.574Z,86.84
2019-03-15T00:05:18.579Z,86.12
2019-03-15T00:06:18.555Z,85.81
2019-03-15T00:07:18.545Z,86.02
2019-03-15T00:08:18.540Z,86.02
2019-03-15T00:09:18.511Z,85.09
2019-03-15T00:10:18.511Z,85.71
2019-03-15T00:11:18.515Z,85.09
2019-03-15T00:12:18.483Z,86.02
2019-03-15T00:13:18.523Z,86.90
2019-03-15T00:14:18.458Z,85.60
2019-03-15T00:15:18.479Z,87.05
2019-03-15T00:16:18.438Z,86.63
2019-03-15T00:17:18.428Z,87.26
2019-03-15T00:18:18.410Z,86.43
2019-03-15T00:19:18.406Z,87.05
2019-03-15T00:20:18.384Z,85.60
2019-03-15T00:21:18.405Z,85.50
2019-03-15T00:22:18.381Z,85.50
2019-03-15T00:23:18.501Z,85.60
2019-03-15T00:24:19.219Z,87.05
2019-03-15T00:25:18.327Z,86.84
2019-03-15T00:26:18.352Z,86.36
2019-03-15T00:27:18.317Z,87.19
2019-03-15T00:28:18.318Z,85.54
2019-03-15T00:29:18.375Z,85.95
2019-03-15T00:30:18.301Z,85.44
2019-03-15T00:31:18.290Z,86.05
2019-03-15T00:32:18.261Z,85.95
2019-03-15T00:33:18.267Z,85.95
2019-03-15T00:34:18.309Z,85.64
2019-03-15T00:35:18.230Z,85.85
2019-03-15T00:36:18.212Z,85.64
2019-03-15T00:37:18.193Z,85.33
2019-03-15T00:38:18.198Z,85.13
2019-03-15T00:39:18.183Z,85.13
2019-03-15T00:40:18.168Z,85.13
2019-03-15T00:41:18.149Z,85.39
2019-03-15T00:42:18.158Z,86.26
2019-03-15T00:43:18.129Z,85.33
2019-03-15T00:44:18.135Z,86.78
2019-03-15T00:45:18.109Z,86.26
2019-03-15T00:46:18.100Z,86.98
2019-03-15T00:47:18.085Z,85.91
2019-03-15T00:48:18.073Z,85.30
2019-03-15T00:49:18.087Z,85.30
2019-03-15T00:50:18.057Z,85.19
2019-03-15T00:51:18.037Z,85.09
2019-03-15T00:52:18.034Z,85.39
2019-03-15T00:53:18.019Z,84.88
2019-03-15T00:54:18.035Z,85.67
2019-03-15T00:55:18.150Z,84.78
2019-03-15T00:56:17.994Z,84.16
2019-03-15T00:57:17.973Z,84.78
2019-03-15T00:58:17.970Z,84.78
2019-03-15T00:59:17.963Z,85.39
2019-03-15T01:00:17.934Z,84.94
2019-03-15T01:01:17.936Z,84.36
2019-03-15T01:02:17.921Z,84.12
2019-03-15T01:03:17.899Z,84.33
2019-03-15T01:04:17.930Z,84.43
2019-03-15T01:05:17.895Z,83.91
2019-03-15T01:06:17.871Z,83.50
2019-03-15T01:07:17.877Z,84.01
2019-03-15T01:08:17.851Z,84.16
2019-03-15T01:09:17.861Z,83.91
2019-03-15T01:10:17.843Z,84.22
2019-03-15T01:11:17.807Z,84.12
2019-03-15T01:12:17.815Z,83.50
2019-03-15T01:13:17.809Z,84.22
2019-03-15T01:14:17.818Z,84.01
2019-03-15T01:15:17.776Z,83.19
2019-03-15T01:16:17.755Z,83.50
2019-03-15T01:17:17.752Z,83.19
2019-03-15T01:18:18.423Z,83.05
2019-03-15T01:19:17.757Z,82.84
2019-03-15T01:20:18.241Z,82.95
2019-03-15T01:21:17.711Z,82.84
2019-03-15T01:22:17.727Z,82.74
2019-03-15T01:23:17.681Z,82.74
2019-03-15T01:24:17.834Z,82.02
2019-03-15T01:25:17.659Z,81.09
2019-03-15T01:26:17.651Z,81.44
2019-03-15T01:27:17.647Z,82.57
2019-03-15T01:28:17.621Z,83.13
2019-03-15T01:29:17.615Z,82.40
2019-03-15T01:30:17.628Z,83.03
2019-03-15T01:31:17.586Z,83.13
2019-03-15T01:32:17.589Z,83.13
2019-03-15T01:33:17.581Z,83.03
2019-03-15T01:34:17.559Z,82.71
2019-03-15T01:35:17.573Z,82.92
2019-03-15T01:36:17.537Z,83.48
2019-03-15T01:37:17.527Z,83.54
2019-03-15T01:38:17.529Z,83.33
2019-03-15T01:39:17.496Z,83.03
2019-03-15T01:40:17.512Z,82.92
2019-03-15T01:41:17.480Z,82.92
2019-03-15T01:42:17.463Z,83.33
2019-03-15T01:43:17.460Z,83.23
2019-03-15T01:44:17.453Z,83.23
2019-03-15T01:45:18.412Z,83.03
2019-03-15T01:46:17.427Z,83.13
2019-03-15T01:47:17.415Z,83.23
2019-03-15T01:48:17.393Z,82.61
2019-03-15T01:49:17.391Z,82.71
2019-03-15T01:50:17.395Z,82.61
2019-03-15T01:51:17.363Z,82.78
2019-03-15T01:52:17.404Z,82.92
2019-03-15T01:53:17.362Z,82.89
2019-03-15T01:54:17.327Z,83.03
2019-03-15T01:55:17.336Z,82.68
2019-03-15T01:56:17.325Z,83.13
2019-03-15T01:57:17.301Z,83.03
2019-03-15T01:58:17.299Z,83.54
2019-03-15T01:59:17.301Z,83.03
2019-03-15T02:00:17.287Z,82.92
2019-03-15T02:01:17.263Z,83.54
2019-03-15T02:02:17.240Z,83.95
2019-03-15T02:03:17.227Z,83.95
2019-03-15T02:04:17.233Z,83.64
2019-03-15T02:05:17.240Z,84.16
2019-03-15T02:06:17.555Z,84.06
2019-03-15T02:07:17.179Z,84.27
2019-03-15T02:08:17.171Z,84.16
2019-03-15T02:09:17.163Z,84.27
2019-03-15T02:10:17.173Z,85.60
2019-03-15T02:11:17.186Z,85.60
2019-03-15T02:12:17.130Z,85.09
2019-03-15T02:13:17.117Z,85.60
2019-03-15T02:14:17.106Z,85.50
2019-03-15T02:15:17.094Z,85.54
2019-03-15T02:16:17.105Z,85.44
2019-03-15T02:17:17.075Z,85.23
2019-03-15T02:18:17.067Z,85.33
2019-03-15T02:19:17.051Z,85.39
2019-03-15T02:20:17.037Z,85.39
2019-03-15T02:21:17.099Z,85.75
2019-03-15T02:22:17.019Z,85.44
2019-03-15T02:23:17.005Z,86.02
2019-03-15T02:24:17.005Z,86.05
2019-03-15T02:25:16.984Z,86.98
2019-03-15T02:26:16.987Z,86.02
2019-03-15T02:27:16.971Z,85.50
2019-03-15T02:28:16.947Z,85.44
2019-03-15T02:29:16.935Z,85.54
2019-03-15T02:30:16.928Z,85.64
2019-03-15T02:31:16.940Z,85.85
2019-03-15T02:32:16.924Z,85.02
2019-03-15T02:33:16.903Z,85.60
2019-03-15T02:34:16.887Z,85.23
2019-03-15T02:35:16.881Z,85.50
2019-03-15T02:36:16.886Z,85.30
2019-03-15T02:37:16.871Z,84.92
2019-03-15T02:38:16.872Z,84.78
2019-03-15T02:39:16.837Z,84.06
2019-03-15T02:40:16.839Z,84.36
2019-03-15T02:41:16.819Z,84.27
2019-03-15T02:42:16.804Z,84.16
2019-03-15T02:43:16.781Z,84.36
2019-03-15T02:44:16.765Z,84.36
2019-03-15T02:45:16.776Z,84.36
2019-03-15T02:46:16.765Z,84.36
2019-03-15T02:47:16.742Z,84.36
2019-03-15T02:48:16.734Z,84.06
2019-03-15T02:49:16.715Z,84.30
2019-03-15T02:50:16.704Z,84.16
2019-03-15T02:51:16.725Z,84.36
2019-03-15T02:52:16.686Z,84.36
2019-03-15T02:53:16.669Z,84.27
2019-03-15T02:54:16.659Z,85.02
2019-03-15T02:55:16.644Z,84.30
2019-03-15T02:56:16.664Z,84.41
2019-03-15T02:57:16.622Z,84.30
2019-03-15T02:58:16.615Z,84.78
2019-03-15T02:59:16.604Z,84.30
2019-03-15T03:00:16.595Z,84.92
2019-03-15T03:01:16.579Z,84.16
2019-03-15T03:02:16.587Z,84.16
2019-03-15T03:03:16.563Z,84.67
2019-03-15T03:04:16.565Z,84.16
2019-03-15T03:05:16.544Z,84.06
2019-03-15T03:06:16.530Z,84.16
2019-03-15T03:07:16.537Z,84.06
2019-03-15T03:08:16.498Z,85.09
2019-03-15T03:09:16.501Z,84.78
2019-03-15T03:10:16.480Z,84.72
2019-03-15T03:11:16.472Z,84.30
2019-03-15T03:12:17.457Z,84.06
2019-03-15T03:13:16.446Z,84.16
2019-03-15T03:14:16.431Z,84.27
2019-03-15T03:15:16.436Z,84.16
2019-03-15T03:16:17.802Z,83.54
2019-03-15T03:17:16.416Z,83.64
2019-03-15T03:18:16.414Z,83.13
2019-03-15T03:19:16.378Z,83.23
2019-03-15T03:20:16.377Z,81.89
2019-03-15T03:21:16.354Z,80.96
2019-03-15T03:22:16.364Z,81.37
2019-03-15T03:23:16.342Z,81.23
2019-03-15T03:24:16.324Z,80.86
2019-03-15T03:25:17.262Z,81.44
2019-03-15T03:26:16.299Z,81.17
2019-03-15T03:27:16.325Z,81.79
2019-03-15T03:28:16.279Z,81.99
2019-03-15T03:29:16.275Z,81.54
2019-03-15T03:30:17.270Z,81.48
2019-03-15T03:31:16.450Z,82.20
2019-03-15T03:32:16.284Z,81.89
2019-03-15T03:33:16.221Z,81.07
2019-03-15T03:34:16.210Z,81.89
2019-03-15T03:35:16.196Z,81.68
2019-03-15T03:36:16.191Z,82.51
2019-03-15T03:37:16.171Z,82.30
2019-03-15T03:38:16.189Z,82.82
2019-03-15T03:39:16.155Z,82.51
2019-03-15T03:40:19.825Z,83.03
2019-03-15T03:41:16.126Z,84.36
2019-03-15T03:42:16.114Z,85.19
2019-03-15T03:43:16.122Z,85.33
2019-03-15T03:44:16.095Z,85.44
2019-03-15T03:45:16.087Z,85.95
2019-03-15T03:46:16.071Z,86.47
2019-03-15T03:47:16.060Z,87.29
2019-03-15T03:48:16.075Z,87.08
2019-03-15T03:49:16.037Z,87.02
2019-03-15T03:50:16.023Z,87.71
2019-03-15T03:51:16.016Z,88.47
2019-03-15T03:52:16.005Z,88.68
2019-03-15T03:53:16.009Z,88.68
2019-03-15T03:54:15.980Z,89.29
2019-03-15T03:55:15.979Z,90.74
2019-03-15T03:56:15.961Z,91.05
2019-03-15T03:57:15.951Z,90.84
2019-03-15T03:58:15.965Z,91.26
2019-03-15T03:59:15.925Z,91.30
2019-03-15T04:00:15.913Z,91.09
2019-03-15T04:01:15.901Z,91.40
2019-03-15T04:02:15.899Z,91.71
2019-03-15T04:03:15.930Z,91.40
2019-03-15T04:04:15.867Z,91.61
2019-03-15T04:05:15.860Z,91.71
2019-03-15T04:06:15.923Z,92.02
2019-03-15T04:07:15.839Z,91.92
2019-03-15T04:08:15.937Z,92.02
2019-03-15T04:09:15.809Z,92.13
2019-03-15T04:10:15.797Z,92.02
2019-03-15T04:11:15.788Z,91.92
2019-03-15T04:12:15.793Z,91.50
2019-03-15T04:13:15.793Z,91.71
2019-03-15T04:14:15.765Z,91.40
2019-03-15T04:15:15.744Z,91.46
2019-03-15T04:16:15.736Z,90.64
2019-03-15T04:17:15.722Z,90.84
2019-03-15T04:18:15.729Z,90.12
2019-03-15T04:19:15.704Z,89.40
2019-03-15T04:20:15.684Z,89.29
2019-03-15T04:21:15.682Z,89.40
2019-03-15T04:22:15.665Z,88.78
2019-03-15T04:23:15.655Z,89.19
2019-03-15T04:24:15.657Z,89.15
2019-03-15T04:25:15.635Z,88.43
2019-03-15T04:26:15.622Z,87.92
2019-03-15T04:27:15.605Z,86.47
2019-03-15T04:28:15.595Z,85.13
2019-03-15T04:29:15.619Z,85.85
2019-03-15T04:30:15.579Z,85.44
2019-03-15T04:31:15.598Z,85.02
2019-03-15T04:32:15.553Z,85.75
2019-03-15T04:33:15.544Z,85.44
2019-03-15T04:34:16.011Z,85.23
2019-03-15T04:35:15.530Z,84.81
2019-03-15T04:36:15.511Z,85.30
2019-03-15T04:37:15.498Z,85.13
2019-03-15T04:38:15.488Z,85.13
2019-03-15T04:39:15.497Z,85.85
2019-03-15T04:40:15.463Z,84.92
2019-03-15T04:41:15.447Z,85.02
2019-03-15T04:42:15.447Z,85.23
2019-03-15T04:43:15.427Z,84.72
2019-03-15T04:44:15.432Z,84.61
2019-03-15T04:45:15.402Z,85.02
2019-03-15T04:46:15.393Z,84.30
2019-03-15T04:47:15.383Z,84.30
2019-03-15T04:48:15.378Z,84.57
2019-03-15T04:49:15.378Z,83.99
2019-03-15T04:50:15.352Z,84.06
2019-03-15T04:51:15.349Z,83.89
2019-03-15T04:52:15.325Z,83.58
2019-03-15T04:53:15.314Z,84.09
2019-03-15T04:54:15.331Z,84.30
2019-03-15T04:55:15.289Z,84.06
2019-03-15T04:56:15.277Z,83.54
2019-03-15T04:57:15.279Z,83.58
2019-03-15T04:58:15.260Z,83.48
2019-03-15T04:59:15.265Z,83.44
2019-03-15T05:00:15.242Z,83.75
2019-03-15T05:01:15.227Z,84.09
2019-03-15T05:02:15.209Z,83.54
2019-03-15T05:03:15.207Z,84.16
2019-03-15T05:04:15.215Z,84.09
2019-03-15T05:05:15.181Z,84.27
2019-03-15T05:06:15.170Z,84.41
2019-03-15T05:07:15.157Z,84.20
2019-03-15T05:08:15.161Z,84.16
2019-03-15T05:09:15.152Z,84.51
2019-03-15T05:10:15.122Z,83.95
2019-03-15T05:11:15.109Z,84.20
2019-03-15T05:12:15.099Z,84.61
2019-03-15T05:13:15.087Z,83.99
2019-03-15T05:14:15.273Z,84.20
2019-03-15T05:15:15.065Z,83.89
2019-03-15T05:16:15.056Z,84.20
2019-03-15T05:17:15.040Z,84.09
2019-03-15T05:18:15.029Z,84.30
2019-03-15T05:19:15.048Z,84.30
2019-03-15T05:20:15.005Z,83.89
2019-03-15T05:21:15.005Z,83.78
2019-03-15T05:22:14.985Z,84.20
2019-03-15T05:23:14.980Z,84.41
2019-03-15T05:24:14.983Z,84.13
2019-03-15T05:25:14.963Z,84.61
2019-03-15T05:26:14.943Z,84.30
2019-03-15T05:27:14.941Z,84.13
2019-03-15T05:28:14.917Z,84.23
2019-03-15T05:29:14.918Z,84.96
2019-03-15T05:30:14.902Z,85.44
2019-03-15T05:31:14.883Z,84.92
2019-03-15T05:32:14.874Z,85.23
2019-03-15T05:33:14.877Z,85.06
2019-03-15T05:34:14.900Z,85.54
2019-03-15T05:35:14.837Z,85.33
2019-03-15T05:36:14.829Z,84.92
2019-03-15T05:37:14.815Z,85.58
2019-03-15T05:38:14.817Z,86.05
2019-03-15T05:39:14.811Z,87.40
2019-03-15T05:40:14.790Z,87.34
2019-03-15T05:41:14.795Z,88.57
2019-03-15T05:42:14.768Z,88.98
2019-03-15T05:43:14.749Z,89.50
2019-03-15T05:44:14.776Z,90.95
2019-03-15T05:45:14.735Z,91.36
2019-03-15T05:46:14.716Z,91.61
2019-03-15T05:47:14.705Z,91.61
2019-03-15T05:48:14.696Z,91.82
2019-03-15T05:49:14.687Z,92.13
2019-03-15T05:50:14.685Z,92.44
2019-03-15T05:51:14.655Z,92.74
2019-03-15T05:52:14.641Z,93.47
2019-03-15T05:53:14.635Z,92.64
2019-03-15T05:54:14.624Z,93.16
2019-03-15T05:55:14.631Z,93.88
2019-03-15T05:56:14.628Z,93.78
2019-03-15T05:57:14.587Z,93.16
2019-03-15T05:58:14.583Z,93.05
2019-03-15T05:59:14.571Z,93.16
2019-03-15T06:00:14.575Z,92.85
2019-03-15T06:01:14.567Z,92.02
2019-03-15T06:02:14.536Z,91.30
2019-03-15T06:03:14.526Z,91.40
2019-03-15T06:04:14.511Z,91.36
2019-03-15T06:05:14.529Z,89.81
2019-03-15T06:06:14.493Z,89.29
2019-03-15T06:07:14.495Z,89.29
2019-03-15T06:08:14.463Z,88.89
2019-03-15T06:09:14.456Z,88.26
2019-03-15T06:10:14.479Z,87.81
2019-03-15T06:11:14.433Z,87.13
2019-03-15T06:12:14.449Z,87.08
2019-03-15T06:13:14.409Z,87.71
2019-03-15T06:14:14.394Z,87.71
2019-03-15T06:15:14.404Z,87.08
2019-03-15T06:16:14.385Z,87.08
2019-03-15T06:17:14.396Z,86.57
2019-03-15T06:18:14.355Z,86.36
2019-03-15T06:19:14.342Z,85.64
2019-03-15T06:20:14.338Z,85.85
2019-03-15T06:21:14.318Z,85.85
2019-03-15T06:22:14.309Z,86.26
2019-03-15T06:23:16.842Z,85.95
2019-03-15T06:24:14.299Z,87.19
2019-03-15T06:25:14.304Z,86.47
2019-03-15T06:26:14.272Z,86.47
2019-03-15T06:27:14.256Z,86.94
2019-03-15T06:28:14.240Z,86.84
2019-03-15T06:29:14.246Z,86.94
2019-03-15T06:30:14.243Z,86.78
2019-03-15T06:31:14.210Z,86.68
2019-03-15T06:32:14.208Z,86.57
2019-03-15T06:33:14.195Z,86.98
2019-03-15T06:34:14.177Z,86.63
2019-03-15T06:35:14.216Z,85.91
2019-03-15T06:36:14.149Z,86.78
2019-03-15T06:37:14.145Z,86.32
2019-03-15T06:38:14.135Z,86.12
2019-03-15T06:39:14.115Z,86.02
2019-03-15T06:40:14.217Z,85.50
2019-03-15T06:41:14.603Z,85.81
2019-03-15T06:42:14.085Z,86.12
2019-03-15T06:43:14.179Z,85.60
2019-03-15T06:44:14.086Z,85.60
2019-03-15T06:45:14.048Z,85.39
2019-03-15T06:46:14.060Z,85.54
2019-03-15T06:47:14.061Z,85.09
2019-03-15T06:48:14.016Z,85.30
2019-03-15T06:49:16.487Z,85.09
2019-03-15T06:50:14.015Z,84.27
2019-03-15T06:51:14.006Z,84.36
2019-03-15T06:52:13.984Z,84.36
2019-03-15T06:53:13.965Z,84.36
2019-03-15T06:54:13.948Z,83.91
2019-03-15T06:55:13.936Z,84.01
2019-03-15T06:56:13.949Z,83.61
2019-03-15T06:57:13.920Z,84.01
2019-03-15T06:58:13.899Z,84.12
2019-03-15T06:59:13.907Z,84.22
2019-03-15T07:00:13.884Z,83.91
2019-03-15T07:01:13.893Z,83.09
2019-03-15T07:02:13.889Z,82.89
2019-03-15T07:03:13.848Z,82.89
2019-03-15T07:04:13.839Z,84.01
2019-03-15T07:05:13.846Z,83.40
2019-03-15T07:06:14.365Z,83.05
2019-03-15T07:07:15.170Z,83.29
2019-03-15T07:08:13.797Z,83.36
2019-03-15T07:09:13.789Z,82.98
2019-03-15T07:10:13.794Z,82.89
2019-03-15T07:11:13.772Z,82.98
2019-03-15T07:12:13.745Z,83.29
2019-03-15T07:13:13.735Z,83.09
2019-03-15T07:14:13.729Z,83.50
2019-03-15T07:15:13.753Z,83.19
2019-03-15T07:16:13.733Z,83.61
2019-03-15T07:17:14.723Z,83.19
2019-03-15T07:18:13.674Z,83.19
2019-03-15T07:19:25.754Z,82.68
2019-03-15T07:20:14.656Z,82.98
2019-03-15T07:21:13.802Z,82.82
2019-03-15T07:22:13.634Z,82.68
2019-03-15T07:23:13.628Z,82.61
2019-03-15T07:24:24.479Z,82.71
2019-03-15T07:25:14.603Z,82.26
2019-03-15T07:26:13.615Z,82.68
2019-03-15T07:27:13.830Z,82.64
2019-03-15T07:28:13.578Z,81.09
2019-03-15T07:29:13.555Z,80.58
2019-03-15T07:30:13.547Z,79.75
2019-03-15T07:31:13.537Z,79.96
2019-03-15T07:32:13.544Z,79.82
2019-03-15T07:33:13.545Z,79.20
2019-03-15T07:34:14.051Z,80.13
2019-03-15T07:35:13.485Z,78.48
2019-03-15T07:36:13.478Z,78.58
2019-03-15T07:37:13.508Z,79.51
2019-03-15T07:38:13.448Z,78.48
2019-03-15T07:39:13.440Z,78.17
2019-03-15T07:40:13.431Z,78.38
2019-03-15T07:41:13.414Z,78.58
2019-03-15T07:42:13.420Z,78.07
2019-03-15T07:43:13.407Z,77.97
2019-03-15T07:44:13.454Z,78.28
2019-03-15T07:45:13.375Z,77.00
2019-03-15T07:46:13.365Z,76.49
2019-03-15T07:47:13.371Z,76.59
2019-03-15T07:48:22.353Z,77.00
2019-03-15T07:49:14.329Z,77.31
2019-03-15T07:50:14.448Z,76.39
2019-03-15T07:51:13.309Z,76.49
2019-03-15T07:52:13.337Z,77.21
2019-03-15T07:53:13.280Z,75.84
2019-03-15T07:54:13.271Z,75.42
2019-03-15T07:55:13.261Z,75.77
2019-03-15T07:56:13.251Z,74.60
2019-03-15T07:57:13.260Z,74.84
2019-03-15T07:58:13.225Z,75.32
2019-03-15T07:59:13.220Z,74.50
2019-03-15T08:00:13.201Z,74.29
2019-03-15T08:01:13.185Z,74.19
2019-03-15T08:02:13.210Z,74.29
2019-03-15T08:03:13.168Z,74.26
2019-03-15T08:04:17.116Z,73.78
2019-03-15T08:05:13.144Z,73.68
2019-03-15T08:06:13.124Z,73.57
2019-03-15T08:07:13.143Z,73.98
2019-03-15T08:08:13.114Z,73.98
2019-03-15T08:09:13.103Z,73.64
2019-03-15T08:10:13.089Z,72.61
2019-03-15T08:11:13.115Z,72.99
2019-03-15T08:12:13.094Z,72.27
2019-03-15T08:13:13.064Z,71.07
2019-03-15T08:14:13.961Z,71.48
2019-03-15T08:15:13.053Z,72.20
2019-03-15T08:16:13.035Z,71.69
2019-03-15T08:17:13.033Z,72.38
2019-03-15T08:18:13.003Z,71.79
2019-03-15T08:19:12.993Z,72.00
2019-03-15T08:20:12.986Z,71.48
2019-03-15T08:21:12.961Z,71.69
2019-03-15T08:22:12.977Z,72.09
2019-03-15T08:23:12.963Z,71.04
2019-03-15T08:24:12.925Z,70.94
2019-03-15T08:25:12.977Z,70.94
2019-03-15T08:26:12.948Z,71.04
2019-03-15T08:27:16.022Z,70.52
2019-03-15T08:28:12.905Z,69.80
2019-03-15T08:29:12.876Z,69.80
2019-03-15T08:30:12.879Z,70.73
2019-03-15T08:31:12.859Z,71.04
2019-03-15T08:32:12.862Z,70.73
2019-03-15T08:33:12.884Z,70.83
2019-03-15T08:34:12.831Z,71.21
2019-03-15T08:35:12.807Z,70.39
2019-03-15T08:36:12.849Z,71.11
2019-03-15T08:37:12.809Z,71.04
2019-03-15T08:38:12.790Z,72.17
2019-03-15T08:39:12.775Z,72.38
2019-03-15T08:40:12.767Z,71.86
2019-03-15T08:41:12.741Z,72.27
2019-03-15T08:42:12.750Z,72.30
2019-03-15T08:43:12.745Z,73.33
2019-03-15T08:44:12.750Z,73.54
2019-03-15T08:45:12.707Z,73.54
2019-03-15T08:46:12.681Z,73.44
2019-03-15T08:47:12.681Z,73.74
2019-03-15T08:48:12.722Z,73.74
2019-03-15T08:49:12.678Z,73.50
2019-03-15T08:50:15.072Z,73.71
2019-03-15T08:51:12.651Z,73.81
2019-03-15T08:52:12.626Z,73.27
2019-03-15T08:53:12.638Z,72.99
2019-03-15T08:54:12.609Z,72.65
2019-03-15T08:55:12.581Z,72.44
2019-03-15T08:56:14.588Z,72.24
2019-03-15T08:57:12.581Z,72.44
2019-03-15T08:58:15.361Z,72.65
2019-03-15T08:59:12.548Z,71.86
2019-03-15T09:00:12.554Z,72.89
2019-03-15T09:01:12.525Z,73.09
2019-03-15T09:02:12.526Z,73.33
2019-03-15T09:03:12.528Z,73.64
2019-03-15T09:04:12.487Z,73.74
2019-03-15T09:05:12.482Z,73.54
2019-03-15T09:06:12.463Z,73.74
2019-03-15T09:07:12.466Z,73.85
2019-03-15T09:08:12.471Z,73.50
2019-03-15T09:09:12.442Z,73.50
2019-03-15T09:10:22.767Z,73.19
2019-03-15T09:11:13.414Z,72.65
2019-03-15T09:12:12.395Z,72.55
2019-03-15T09:13:12.401Z,72.13
2019-03-15T09:14:12.402Z,71.48
2019-03-15T09:15:12.368Z,71.59
2019-03-15T09:16:12.359Z,71.69
2019-03-15T09:17:12.354Z,71.79
2019-03-15T09:18:12.347Z,71.08
2019-03-15T09:19:12.335Z,71.38
2019-03-15T09:20:12.326Z,70.97
2019-03-15T09:21:12.302Z,70.66
2019-03-15T09:22:12.301Z,71.04
2019-03-15T09:23:12.308Z,71.08
2019-03-15T09:24:12.268Z,71.55
2019-03-15T09:25:19.188Z,70.94
2019-03-15T09:26:13.243Z,70.73
2019-03-15T09:27:12.234Z,70.94
2019-03-15T09:28:12.245Z,70.22
2019-03-15T09:29:12.206Z,70.22
2019-03-15T09:30:22.632Z,71.04
2019-03-15T09:31:13.191Z,70.80
2019-03-15T09:32:12.166Z,70.50
2019-03-15T09:33:12.206Z,70.39
2019-03-15T09:34:12.163Z,69.54
2019-03-15T09:35:12.141Z,70.26
2019-03-15T09:36:12.144Z,69.74
2019-03-15T09:37:12.114Z,69.26
2019-03-15T09:38:12.145Z,70.26
2019-03-15T09:39:12.099Z,70.05
2019-03-15T09:40:12.073Z,69.74
2019-03-15T09:41:12.073Z,69.84
2019-03-15T09:42:12.070Z,68.79
2019-03-15T09:43:12.037Z,69.33
2019-03-15T09:44:12.053Z,69.23
2019-03-15T09:45:12.028Z,69.64
2019-03-15T09:46:12.023Z,69.16
2019-03-15T09:47:12.011Z,69.98
2019-03-15T09:48:12.009Z,70.50
2019-03-15T09:49:11.985Z,70.22
2019-03-15T09:50:23.187Z,70.08
2019-03-15T09:51:12.962Z,70.42
2019-03-15T09:52:11.963Z,70.94
2019-03-15T09:53:11.970Z,71.14
2019-03-15T09:55:12.990Z,70.73
2019-03-15T09:56:11.908Z,70.84
2019-03-15T09:57:11.879Z,70.80
2019-03-15T09:58:11.978Z,70.77
2019-03-15T09:59:11.888Z,69.95
2019-03-15T10:00:11.851Z,69.33
2019-03-15T10:01:12.167Z,69.54
2019-03-15T10:02:11.815Z,69.13
2019-03-15T10:03:21.503Z,68.92
2019-03-15T10:04:12.838Z,69.02
2019-03-15T10:05:11.858Z,69.33
2019-03-15T10:06:15.674Z,69.20
2019-03-15T10:07:12.835Z,69.13
2019-03-15T10:08:11.748Z,69.23
2019-03-15T10:09:11.780Z,69.95
2019-03-15T10:10:13.848Z,69.30
2019-03-15T10:11:11.715Z,68.79
2019-03-15T10:12:11.711Z,68.76
2019-03-15T10:13:11.693Z,68.55
2019-03-15T10:14:11.715Z,68.48
2019-03-15T10:15:11.697Z,68.59
2019-03-15T10:16:11.689Z,68.79
2019-03-15T10:17:11.655Z,68.24
2019-03-15T10:18:11.643Z,68.07
2019-03-15T10:19:11.670Z,68.30
2019-03-15T10:20:12.746Z,68.62
2019-03-15T10:21:11.615Z,68.72
2019-03-15T10:22:11.635Z,67.86
2019-03-15T10:23:11.589Z,66.63
2019-03-15T10:24:11.593Z,65.83
2019-03-15T10:25:11.553Z,65.31
2019-03-15T10:26:14.799Z,65.62
2019-03-15T10:27:11.531Z,64.77
2019-03-15T10:28:11.542Z,64.26
2019-03-15T10:29:15.721Z,63.51
2019-03-15T10:30:12.508Z,63.51
2019-03-15T10:31:11.493Z,63.28
2019-03-15T10:32:11.528Z,62.57
2019-03-15T10:33:11.472Z,61.61
2019-03-15T10:34:11.476Z,61.72
2019-03-15T10:35:11.455Z,61.95
2019-03-15T10:36:11.434Z,62.77
2019-03-15T10:37:11.435Z,62.70
2019-03-15T10:38:11.431Z,63.65
2019-03-15T10:39:11.434Z,64.90
2019-03-15T10:40:11.397Z,65.01
2019-03-15T10:41:11.391Z,65.24
2019-03-15T10:42:11.365Z,63.91
2019-03-15T10:43:11.373Z,64.94
2019-03-15T10:44:11.377Z,64.97
2019-03-15T10:45:11.333Z,65.17
2019-03-15T10:46:11.327Z,65.68
2019-03-15T10:47:11.326Z,65.58
2019-03-15T10:48:24.225Z,65.71
2019-03-15T10:49:11.343Z,65.81
2019-03-15T10:50:11.280Z,65.58
2019-03-15T10:51:11.266Z,65.17
2019-03-15T10:52:11.280Z,65.17
2019-03-15T10:53:11.237Z,65.07
2019-03-15T10:54:11.284Z,64.86
2019-03-15T10:55:11.253Z,65.07
2019-03-15T10:56:11.220Z,64.76
2019-03-15T10:57:11.212Z,63.94
2019-03-15T10:58:11.230Z,64.28
2019-03-15T10:59:11.181Z,65.10
2019-03-15T11:00:11.209Z,64.92
2019-03-15T11:01:11.173Z,66.02
2019-03-15T11:02:11.155Z,66.02
2019-03-15T11:03:13.089Z,65.33
2019-03-15T11:04:11.125Z,65.20
2019-03-15T11:05:11.153Z,63.97
2019-03-15T11:06:11.133Z,64.59
2019-03-15T11:07:11.110Z,64.28
2019-03-15T11:08:11.096Z,63.97
2019-03-15T11:09:11.069Z,64.69
2019-03-15T11:10:11.108Z,64.38
2019-03-15T11:11:11.060Z,64.38
2019-03-15T11:12:11.062Z,64.04
2019-03-15T11:13:11.034Z,64.35
2019-03-15T11:14:11.015Z,63.64
2019-03-15T11:15:11.110Z,64.04
2019-03-15T11:16:11.005Z,63.50
2019-03-15T11:17:10.997Z,62.45
2019-03-15T11:18:11.008Z,63.24
2019-03-15T11:19:10.975Z,61.75
2019-03-15T11:20:10.962Z,60.28
2019-03-15T11:21:10.929Z,60.28
2019-03-15T11:22:10.933Z,58.42
2019-03-15T11:23:10.947Z,58.45
2019-03-15T11:24:10.897Z,60.55
2019-03-15T11:25:10.910Z,61.60
2019-03-15T11:26:13.911Z,61.09
2019-03-15T11:27:10.861Z,61.73
2019-03-15T11:28:10.868Z,61.40
2019-03-15T11:29:10.846Z,61.70
2019-03-15T11:30:10.872Z,61.19
2019-03-15T11:31:10.826Z,61.50
2019-03-15T11:32:10.811Z,61.16
2019-03-15T11:33:10.809Z,60.24
2019-03-15T11:34:10.804Z,58.04
2019-03-15T11:35:10.814Z,58.27
2019-03-15T11:36:10.755Z,58.22
2019-03-15T11:37:10.759Z,60.14
2019-03-15T11:38:10.738Z,60.27
2019-03-15T11:39:10.751Z,60.35
2019-03-15T11:40:13.880Z,60.37
2019-03-15T11:41:10.713Z,60.27
2019-03-15T11:42:10.696Z,60.06
2019-03-15T11:43:10.682Z,60.78
2019-03-15T11:44:10.692Z,60.78
2019-03-15T11:45:10.772Z,61.29
2019-03-15T11:46:10.648Z,61.09
2019-03-15T11:47:10.633Z,61.11
2019-03-15T11:48:10.630Z,61.73
2019-03-15T11:49:10.618Z,61.32
2019-03-15T11:50:10.638Z,61.43
2019-03-15T11:51:10.590Z,61.60
2019-03-15T11:52:10.581Z,61.63
2019-03-15T11:53:10.571Z,62.04
2019-03-15T11:54:10.567Z,61.93
2019-03-15T11:55:10.627Z,61.32
2019-03-15T11:56:10.551Z,61.83
2019-03-15T11:57:10.514Z,61.73
2019-03-15T11:58:10.510Z,61.52
2019-03-15T11:59:10.499Z,61.40
2019-03-15T12:00:10.508Z,61.93
2019-03-15T12:01:10.480Z,61.09
2019-03-15T12:02:10.940Z,60.99
2019-03-15T12:03:10.476Z,60.35
2019-03-15T12:04:10.445Z,59.63
2019-03-15T12:05:10.452Z,59.83
2019-03-15T12:06:10.411Z,59.19
2019-03-15T12:07:10.639Z,58.55
2019-03-15T12:08:10.406Z,58.55
2019-03-15T12:09:10.380Z,58.25
2019-03-15T12:10:10.400Z,57.81
2019-03-15T12:11:10.367Z,58.52
2019-03-15T12:12:10.356Z,58.25
2019-03-15T12:13:10.340Z,59.06
2019-03-15T12:14:10.323Z,60.11
2019-03-15T12:15:10.330Z,60.03
2019-03-15T12:16:10.333Z,60.24
2019-03-15T12:17:10.287Z,60.99
2019-03-15T12:18:10.284Z,60.99
2019-03-15T12:19:10.277Z,61.06
2019-03-15T12:20:10.257Z,60.55
2019-03-15T12:21:10.270Z,60.96
2019-03-15T12:22:10.274Z,61.47
2019-03-15T12:23:10.216Z,60.37
2019-03-15T12:24:10.221Z,61.50
2019-03-15T12:25:10.192Z,61.50
2019-03-15T12:26:10.321Z,61.80
2019-03-15T12:27:10.178Z,61.91
2019-03-15T12:28:10.163Z,62.35
2019-03-15T12:29:10.156Z,62.96
2019-03-15T12:30:10.180Z,62.76
2019-03-15T12:31:10.155Z,63.88
2019-03-15T12:32:10.114Z,63.47
2019-03-15T12:33:10.112Z,64.18
2019-03-15T12:34:10.118Z,64.32
2019-03-15T12:35:10.126Z,64.73
2019-03-15T12:36:10.095Z,65.65
2019-03-15T12:37:10.061Z,65.55
2019-03-15T12:38:10.045Z,65.45
2019-03-15T12:39:10.057Z,66.06
2019-03-15T12:40:10.129Z,65.65
2019-03-15T12:41:10.037Z,65.62
2019-03-15T12:42:10.005Z,65.59
2019-03-15T12:43:09.997Z,64.57
2019-03-15T12:44:10.635Z,64.54
2019-03-15T12:45:10.002Z,65.18
2019-03-15T12:46:10.004Z,65.69
2019-03-15T12:47:09.990Z,66.03
2019-03-15T12:48:09.982Z,66.13
2019-03-15T12:49:09.931Z,66.27
2019-03-15T12:50:09.933Z,66.67
2019-03-15T12:51:10.043Z,67.70
2019-03-15T12:52:09.916Z,66.40
2019-03-15T12:53:09.907Z,67.22